Time,TemperatureF,DewpointF,PressureIn,WindDirection,WindDirectionDegrees,WindSpeedMPH,WindSpeedGustMPH,Humidity,HourlyPrecipIn,Conditions,Clouds,dailyrainin,SolarRadiationWatts/m^2,SoftwareType,DateUTC
2013-02-02 00:02:00,-3.0,-10.0,30.05,West,279,0.0,0.0,71,0.00,,,0.00,0.000000,,2013-02-02 06:02:00,
2013-02-02 00:32:00,-3.0,-10.0,30.06,West,266,1.0,2.0,71,0.00,,,0.00,0.000000,,2013-02-02 06:32:00,
2013-02-02 00:42:00,-3.0,-10.0,30.06,West,266,1.0,2.0,71,0.00,,,0.00,0.000000,,2013-02-02 06:42:00,
2013-02-02 00:52:00,-3.0,-10.0,30.06,West,266,1.0,2.0,71,0.00,,,0.00,0.000000,,2013-02-02 06:52:00,
2013-02-02 01:02:00,-3.0,-10.0,30.06,West,266,1.0,2.0,71,0.00,,,0.00,0.000000,,2013-02-02 07:02:00,
2013-02-02 01:32:00,-5.0,-12.0,30.06,NE,34,0.0,0.0,72,0.00,,,0.00,1.000000,,2013-02-02 07:32:00,
2013-02-02 01:42:00,-5.0,-12.0,30.06,NE,34,0.0,0.0,72,0.00,,,0.00,1.000000,,2013-02-02 07:42:00,
2013-02-02 01:52:00,-5.0,-12.0,30.06,NE,34,0.0,0.0,72,0.00,,,0.00,1.000000,,2013-02-02 07:52:00,
2013-02-02 02:01:00,-5.0,-12.0,30.06,NE,34,0.0,0.0,72,0.00,,,0.00,1.000000,,2013-02-02 08:01:00,
2013-02-02 02:32:00,-10.0,-16.0,30.08,NNW,328,0.0,0.0,73,0.00,,,0.00,1.000000,,2013-02-02 08:32:00,
2013-02-02 02:42:00,-10.0,-16.0,30.08,NNW,328,0.0,0.0,73,0.00,,,0.00,1.000000,,2013-02-02 08:42:00,
2013-02-02 02:53:00,-10.0,-16.0,30.08,NNW,328,0.0,0.0,73,0.00,,,0.00,1.000000,,2013-02-02 08:53:00,
2013-02-02 03:01:00,-10.0,-16.0,30.08,NNW,328,0.0,0.0,73,0.00,,,0.00,1.000000,,2013-02-02 09:01:00,
2013-02-02 03:32:00,-14.0,-21.0,30.09,NNW,348,0.0,4.0,69,0.00,,,0.00,1.000000,,2013-02-02 09:32:00,
2013-02-02 04:32:00,-16.0,-23.0,30.10,NE,51,0.0,3.0,68,0.00,,,0.00,1.000000,,2013-02-02 10:32:00,
2013-02-02 04:42:00,-16.0,-23.0,30.10,NE,51,0.0,3.0,68,0.00,,,0.00,1.000000,,2013-02-02 10:42:00,
2013-02-02 04:52:00,-16.0,-23.0,30.10,NE,51,0.0,3.0,68,0.00,,,0.00,1.000000,,2013-02-02 10:52:00,
2013-02-02 05:01:00,-16.0,-23.0,30.10,NE,51,0.0,3.0,68,0.00,,,0.00,1.000000,,2013-02-02 11:01:00,
2013-02-02 05:32:00,-19.0,-27.0,30.11,SSW,209,0.0,0.0,67,0.00,,,0.00,1.000000,,2013-02-02 11:32:00,
2013-02-02 05:42:00,-19.0,-27.0,30.11,SSW,209,0.0,0.0,67,0.00,,,0.00,1.000000,,2013-02-02 11:42:00,
2013-02-02 05:52:00,-19.0,-27.0,30.11,SSW,209,0.0,0.0,67,0.00,,,0.00,1.000000,,2013-02-02 11:52:00,
2013-02-02 06:02:00,-19.0,-27.0,30.11,SSW,209,0.0,0.0,67,0.00,,,0.00,1.000000,,2013-02-02 12:02:00,
2013-02-02 06:32:00,-20.0,-27.0,30.10,NNE,28,0.0,0.0,67,0.00,,,0.00,1.000000,,2013-02-02 12:32:00,
2013-02-02 06:42:00,-20.0,-27.0,30.10,NNE,28,0.0,0.0,67,0.00,,,0.00,1.000000,,2013-02-02 12:42:00,
2013-02-02 06:52:00,-20.0,-27.0,30.10,NNE,28,0.0,0.0,67,0.00,,,0.00,1.000000,,2013-02-02 12:52:00,
2013-02-02 07:02:00,-20.0,-27.0,30.10,NNE,28,0.0,0.0,67,0.00,,,0.00,1.000000,,2013-02-02 13:02:00,
2013-02-02 07:33:00,-22.0,-30.0,30.10,SW,221,0.0,0.0,64,0.00,,,-99.99,1.000000,,2013-02-02 13:33:00,
2013-02-02 07:42:00,-22.0,-30.0,30.10,SW,221,0.0,0.0,64,0.00,,,-99.99,1.000000,,2013-02-02 13:42:00,
2013-02-02 07:52:00,-22.0,-30.0,30.10,SW,221,0.0,0.0,64,0.00,,,-99.99,1.000000,,2013-02-02 13:52:00,
2013-02-02 08:02:00,-22.0,-30.0,30.10,SW,221,0.0,0.0,64,0.00,,,-99.99,1.000000,,2013-02-02 14:02:00,
2013-02-02 08:33:00,-22.0,-30.0,30.09,South,181,0.0,0.0,64,0.00,,,0.00,2.000000,,2013-02-02 14:33:00,
2013-02-02 08:42:00,-22.0,-30.0,30.09,South,181,0.0,0.0,64,0.00,,,0.00,2.000000,,2013-02-02 14:42:00,
2013-02-02 08:52:00,-22.0,-30.0,30.09,South,181,0.0,0.0,64,0.00,,,0.00,2.000000,,2013-02-02 14:52:00,
2013-02-02 09:03:00,-22.0,-30.0,30.09,South,181,0.0,0.0,64,0.00,,,0.00,2.000000,,2013-02-02 15:03:00,
2013-02-02 09:33:00,-13.0,-21.0,30.10,NNW,331,0.0,2.0,66,0.00,,,0.00,16.000000,,2013-02-02 15:33:00,
2013-02-02 09:42:00,-13.0,-21.0,30.10,NNW,331,0.0,2.0,66,0.00,,,0.00,16.000000,,2013-02-02 15:42:00,
2013-02-02 09:52:00,-13.0,-21.0,30.10,NNW,331,0.0,2.0,66,0.00,,,0.00,16.000000,,2013-02-02 15:52:00,
2013-02-02 10:03:00,-13.0,-21.0,30.10,NNW,331,0.0,2.0,66,0.00,,,0.00,16.000000,,2013-02-02 16:03:00,
2013-02-02 10:32:00,-2.0,-11.0,30.08,South,177,2.0,4.0,63,0.00,,,0.00,34.000000,,2013-02-02 16:32:00,
2013-02-02 11:33:00,2.0,-8.0,30.06,SW,230,5.0,10.0,61,0.00,,,0.00,51.000000,,2013-02-02 17:33:00,
2013-02-02 12:32:00,6.0,-7.0,30.02,South,190,6.0,12.0,54,0.00,,,0.00,75.000000,,2013-02-02 18:32:00,
2013-02-02 13:32:00,9.0,-5.0,29.99,SSW,212,5.0,12.0,52,0.00,,,0.00,105.000000,,2013-02-02 19:32:00,
2013-02-02 14:32:00,8.0,-5.0,29.98,SSW,200,5.0,10.0,55,0.00,,,0.00,66.000000,,2013-02-02 20:32:00,
2013-02-02 14:42:00,8.0,-5.0,29.98,SSW,200,5.0,10.0,55,0.00,,,0.00,66.000000,,2013-02-02 20:42:00,
2013-02-02 14:52:00,8.0,-5.0,29.98,SSW,200,5.0,10.0,55,0.00,,,0.00,66.000000,,2013-02-02 20:52:00,
2013-02-02 15:02:00,8.0,-5.0,29.98,SSW,200,5.0,10.0,55,0.00,,,0.00,66.000000,,2013-02-02 21:02:00,
2013-02-02 15:32:00,6.0,-2.0,29.98,SW,218,4.0,8.0,69,0.00,,,0.00,26.000000,,2013-02-02 21:32:00,
2013-02-02 15:42:00,6.0,-2.0,29.98,SW,218,4.0,8.0,69,0.00,,,0.00,26.000000,,2013-02-02 21:42:00,
2013-02-02 15:52:00,6.0,-2.0,29.98,SW,218,4.0,8.0,69,0.00,,,0.00,26.000000,,2013-02-02 21:52:00,
2013-02-02 16:02:00,6.0,-2.0,29.98,SW,218,4.0,8.0,69,0.00,,,0.00,26.000000,,2013-02-02 22:02:00,
2013-02-02 16:32:00,7.0,0.0,29.95,SW,218,3.0,6.0,72,0.00,,,0.00,15.000000,,2013-02-02 22:32:00,
2013-02-02 16:42:00,7.0,0.0,29.95,SW,218,3.0,6.0,72,0.00,,,0.00,15.000000,,2013-02-02 22:42:00,
2013-02-02 16:52:00,7.0,0.0,29.95,SW,218,3.0,6.0,72,0.00,,,0.00,15.000000,,2013-02-02 22:52:00,
2013-02-02 17:02:00,7.0,0.0,29.95,SW,218,3.0,6.0,72,0.00,,,0.00,15.000000,,2013-02-02 23:02:00,
2013-02-02 17:32:00,5.0,-2.0,29.95,SSW,197,3.0,7.0,73,0.00,,,0.00,17.000000,,2013-02-02 23:32:00,
2013-02-02 17:42:00,5.0,-2.0,29.95,SSW,197,3.0,7.0,73,0.00,,,0.00,17.000000,,2013-02-02 23:42:00,
2013-02-02 17:52:00,5.0,-2.0,29.95,SSW,197,3.0,7.0,73,0.00,,,0.00,17.000000,,2013-02-02 23:52:00,
2013-02-02 18:02:00,5.0,-2.0,29.95,SSW,197,3.0,7.0,73,0.00,,,0.00,17.000000,,2013-02-03 00:02:00,
2013-02-02 18:32:00,4.0,-2.0,29.94,SSW,198,2.0,6.0,75,0.00,,,0.00,1.000000,,2013-02-03 00:32:00,
2013-02-02 18:42:00,4.0,-2.0,29.94,SSW,198,2.0,6.0,75,0.00,,,0.00,1.000000,,2013-02-03 00:42:00,
2013-02-02 18:52:00,4.0,-2.0,29.94,SSW,198,2.0,6.0,75,0.00,,,0.00,1.000000,,2013-02-03 00:52:00,
2013-02-02 19:02:00,4.0,-2.0,29.94,SSW,198,2.0,6.0,75,0.00,,,0.00,1.000000,,2013-02-03 01:02:00,
2013-02-02 19:32:00,4.0,-2.0,29.97,WNW,293,1.0,4.0,76,0.00,,,0.00,0.000000,,2013-02-03 01:32:00,
2013-02-02 19:42:00,4.0,-2.0,29.97,WNW,293,1.0,4.0,76,0.00,,,0.00,0.000000,,2013-02-03 01:42:00,
2013-02-02 19:52:00,4.0,-2.0,29.97,WNW,293,1.0,4.0,76,0.00,,,0.00,0.000000,,2013-02-03 01:52:00,
2013-02-02 20:01:00,4.0,-2.0,29.97,WNW,293,1.0,4.0,76,0.00,,,0.00,0.000000,,2013-02-03 02:01:00,
2013-02-02 20:32:00,4.0,-2.0,29.96,West,268,2.0,4.0,75,0.00,,,0.00,1.000000,,2013-02-03 02:32:00,
2013-02-02 20:42:00,4.0,-2.0,29.96,West,268,2.0,4.0,75,0.00,,,0.00,1.000000,,2013-02-03 02:42:00,
2013-02-02 20:52:00,4.0,-2.0,29.96,West,268,2.0,4.0,75,0.00,,,0.00,1.000000,,2013-02-03 02:52:00,
2013-02-02 21:02:00,4.0,-2.0,29.96,West,268,2.0,4.0,75,0.00,,,0.00,1.000000,,2013-02-03 03:02:00,
2013-02-02 21:32:00,4.0,-2.0,29.96,WNW,296,4.0,10.0,75,0.00,,,0.00,1.000000,,2013-02-03 03:32:00,
2013-02-02 21:42:00,4.0,-2.0,29.96,WNW,296,4.0,10.0,75,0.00,,,0.00,1.000000,,2013-02-03 03:42:00,
2013-02-02 21:52:00,4.0,-2.0,29.96,WNW,296,4.0,10.0,75,0.00,,,0.00,1.000000,,2013-02-03 03:52:00,
2013-02-02 22:01:00,4.0,-2.0,29.96,WNW,296,4.0,10.0,75,0.00,,,0.00,1.000000,,2013-02-03 04:01:00,
2013-02-02 22:32:00,4.0,-2.0,29.97,NW,309,6.0,11.0,76,0.00,,,0.00,1.000000,,2013-02-03 04:32:00,
2013-02-02 22:42:00,4.0,-2.0,29.97,NW,309,6.0,11.0,76,0.00,,,0.00,1.000000,,2013-02-03 04:42:00,
2013-02-02 22:52:00,4.0,-2.0,29.97,NW,309,6.0,11.0,76,0.00,,,0.00,1.000000,,2013-02-03 04:52:00,
2013-02-02 23:03:00,4.0,-2.0,29.97,NW,309,6.0,11.0,76,0.00,,,0.00,1.000000,,2013-02-03 05:03:00,
2013-02-02 23:32:00,3.0,-3.0,29.97,NW,310,8.0,15.0,75,0.00,,,0.00,0.000000,,2013-02-03 05:32:00,
2013-02-02 23:42:00,3.0,-3.0,29.97,NW,310,8.0,15.0,75,0.00,,,0.00,0.000000,,2013-02-03 05:42:00,
2013-02-02 23:52:00,3.0,-3.0,29.97,NW,310,8.0,15.0,75,0.00,,,0.00,0.000000,,2013-02-03 05:52:00,